createdAt,value
2018-11-20T00:01:45.519Z,94411.05
2018-11-20T00:04:37.253Z,94414.70
2018-11-20T00:07:28.314Z,94415.88
2018-11-20T00:10:45.270Z,94409.39
2018-11-20T00:13:41.375Z,94411.05
2018-11-20T00:16:29.546Z,94406.45
2018-11-20T00:19:20.195Z,94406.02
2018-11-20T00:22:22.574Z,94415.55
2018-11-20T00:25:11.665Z,94416.34
2018-11-20T00:28:06.951Z,94410.13
2018-11-20T00:31:30.959Z,94423.06
2018-11-20T00:34:05.319Z,94410.40
2018-11-20T00:37:05.530Z,94406.52
2018-11-20T00:40:04.893Z,94391.87
2018-11-20T00:43:03.169Z,94388.02
2018-11-20T00:46:08.879Z,94377.57
2018-11-20T00:49:11.567Z,94379.78
2018-11-20T00:51:59.930Z,94379.89
2018-11-20T00:54:53.206Z,94373.48
2018-11-20T00:58:11.239Z,94380.12
2018-11-20T01:01:20.726Z,94381.50
2018-11-20T01:04:16.237Z,94388.44
2018-11-20T01:06:58.671Z,94383.31
2018-11-20T01:09:47.622Z,94384.89
2018-11-20T01:12:37.891Z,94377.82
2018-11-20T01:15:40.373Z,94374.52
2018-11-20T01:18:39.633Z,94374.73
2018-11-20T01:22:07.815Z,94368.72
2018-11-20T01:25:15.914Z,94367.77
2018-11-20T01:27:57.656Z,94367.20
2018-11-20T01:31:01.117Z,94366.19
2018-11-20T01:33:49.153Z,94363.11
2018-11-20T01:36:45.988Z,94362.53
2018-11-20T01:39:45.223Z,94367.69
2018-11-20T01:42:37.220Z,94367.51
2018-11-20T01:45:42.998Z,94364.69
2018-11-20T01:49:04.778Z,94375.17
2018-11-20T01:51:49.137Z,94366.84
2018-11-20T01:54:41.471Z,94356.20
2018-11-20T01:57:30.795Z,94346.55
2018-11-20T02:00:39.140Z,94340.10
2018-11-20T02:03:26.967Z,94335.59
2018-11-20T02:06:10.345Z,94328.81
2018-11-20T02:08:56.083Z,94320.48
2018-11-20T02:11:48.491Z,94321.09
2018-11-20T02:14:42.340Z,94321.51
2018-11-20T02:17:49.954Z,94317.27
2018-11-20T02:20:59.210Z,94316.02
2018-11-20T02:23:38.811Z,94306.67
2018-11-20T02:26:29.736Z,94294.59
2018-11-20T02:29:18.809Z,94292.00
2018-11-20T02:32:21.758Z,94289.86
2018-11-20T02:35:19.433Z,94297.02
2018-11-20T02:38:16.824Z,94292.46
2018-11-20T02:41:10.091Z,94282.95
2018-11-20T02:44:03.346Z,94280.41
2018-11-20T02:47:15.250Z,94274.19
2018-11-20T02:50:08.758Z,94284.20
2018-11-20T02:53:04.735Z,94288.80
2018-11-20T02:55:59.629Z,94285.38
2018-11-20T02:59:15.990Z,94291.43
2018-11-20T03:02:19.584Z,94290.43
2018-11-20T03:05:29.647Z,94286.54
2018-11-20T03:08:17.209Z,94292.80
2018-11-20T03:11:07.290Z,94291.02
2018-11-20T03:13:54.832Z,94293.17
2018-11-20T03:16:43.906Z,94279.94
2018-11-20T03:19:25.729Z,94285.38
2018-11-20T03:22:12.522Z,94284.10
2018-11-20T03:25:01.575Z,94288.83
2018-11-20T03:27:52.494Z,94284.34
2018-11-20T03:31:27.662Z,94284.03
2018-11-20T03:34:28.894Z,94285.10
2018-11-20T03:37:15.916Z,94284.90
2018-11-20T03:40:27.043Z,94284.13
2018-11-20T03:43:16.230Z,94277.43
2018-11-20T03:46:16.695Z,94271.32
2018-11-20T03:49:20.016Z,94272.73
2018-11-20T03:52:13.976Z,94265.68
2018-11-20T03:55:05.002Z,94270.08
2018-11-20T03:57:49.017Z,94268.27
2018-11-20T04:00:58.139Z,94269.09
2018-11-20T04:03:49.997Z,94263.38
2018-11-20T04:06:35.393Z,94259.57
2018-11-20T04:09:31.293Z,94262.61
2018-11-20T04:12:30.316Z,94269.80
2018-11-20T04:15:18.333Z,94271.09
2018-11-20T04:18:23.705Z,94272.06
2018-11-20T04:21:26.586Z,94269.48
2018-11-20T04:24:19.917Z,94272.62
2018-11-20T04:27:21.456Z,94272.02
2018-11-20T04:31:13.929Z,94266.58
2018-11-20T04:34:12.338Z,94257.38
2018-11-20T04:37:28.306Z,94250.17
2018-11-20T04:40:33.973Z,94238.83
2018-11-20T04:43:26.027Z,94236.16
2018-11-20T04:49:20.731Z,94241.80
2018-11-20T04:52:32.409Z,94244.84
2018-11-20T04:55:30.977Z,94249.73
2018-11-20T04:58:15.670Z,94236.73
2018-11-20T05:01:06.279Z,94237.27
2018-11-20T05:04:14.651Z,94237.66
2018-11-20T05:06:57.686Z,94239.71
2018-11-20T05:09:46.652Z,94235.32
2018-11-20T05:12:39.296Z,94238.39
2018-11-20T05:15:26.720Z,94236.72
2018-11-20T05:18:32.401Z,94239.61
2018-11-20T05:21:26.025Z,94236.15
2018-11-20T05:24:24.009Z,94235.91
2018-11-20T05:30:11.533Z,94226.58
2018-11-20T05:33:25.581Z,94229.66
2018-11-20T05:36:27.558Z,94220.17
2018-11-20T05:39:39.472Z,94226.35
2018-11-20T05:42:35.389Z,94217.97
2018-11-20T05:45:26.374Z,94211.53
2018-11-20T05:48:22.465Z,94203.34
2018-11-20T05:51:14.796Z,94201.02
2018-11-20T05:54:08.093Z,94192.61
2018-11-20T05:57:14.392Z,94194.70
2018-11-20T06:00:08.001Z,94193.09
2018-11-20T06:03:00.241Z,94201.71
2018-11-20T06:05:50.787Z,94193.94
2018-11-20T06:08:40.223Z,94191.09
2018-11-20T06:11:32.651Z,94188.16
2018-11-20T06:14:32.695Z,94184.36
2018-11-20T06:17:32.362Z,94183.19
2018-11-20T06:20:22.865Z,94185.09
2018-11-20T06:23:13.144Z,94190.45
2018-11-20T06:26:13.002Z,94181.28
2018-11-20T06:29:13.034Z,94182.44
2018-11-20T06:32:07.315Z,94183.98
2018-11-20T06:35:02.995Z,94196.31
2018-11-20T06:38:05.759Z,94200.18
2018-11-20T06:40:57.071Z,94200.54
2018-11-20T06:43:46.395Z,94199.70
2018-11-20T06:46:38.728Z,94189.83
2018-11-20T06:49:41.152Z,94193.02
2018-11-20T06:52:32.196Z,94195.95
2018-11-20T06:55:27.666Z,94195.74
2018-11-20T06:58:18.462Z,94189.72
2018-11-20T07:01:12.428Z,94190.55
2018-11-20T07:04:25.493Z,94186.98
2018-11-20T07:07:19.284Z,94181.86
2018-11-20T07:10:08.583Z,94185.44
2018-11-20T07:13:15.419Z,94185.63
2018-11-20T07:16:04.575Z,94194.95
2018-11-20T07:18:56.797Z,94196.46
2018-11-20T07:22:00.835Z,94193.17
2018-11-20T07:24:57.877Z,94193.77
2018-11-20T07:27:48.405Z,94175.37
2018-11-20T07:30:37.837Z,94175.94
2018-11-20T07:33:36.206Z,94178.84
2018-11-20T07:36:29.601Z,94171.28
2018-11-20T07:39:35.345Z,94172.45
2018-11-20T07:42:29.847Z,94166.55
2018-11-20T07:45:30.316Z,94163.53
2018-11-20T07:48:19.786Z,94160.20
2018-11-20T07:51:09.035Z,94169.76
2018-11-20T07:54:18.018Z,94163.23
2018-11-20T07:57:07.252Z,94150.89
2018-11-20T08:00:14.374Z,94171.64
2018-11-20T08:03:05.480Z,94156.85
2018-11-20T08:06:11.153Z,94159.53
2018-11-20T08:09:15.004Z,94163.83
2018-11-20T08:12:07.609Z,94159.97
2018-11-20T08:15:02.974Z,94157.54
2018-11-20T08:18:08.686Z,94157.27
2018-11-20T08:21:02.595Z,94159.16
2018-11-20T08:23:53.163Z,94170.83
2018-11-20T08:26:37.859Z,94176.86
2018-11-20T08:29:26.961Z,94187.27
2018-11-20T08:32:17.864Z,94186.78
2018-11-20T08:35:12.873Z,94184.80
2018-11-20T08:38:02.215Z,94185.70
2018-11-20T08:40:55.886Z,94181.50
2018-11-20T08:43:56.250Z,94186.39
2018-11-20T08:47:04.696Z,94173.50
2018-11-20T08:49:54.470Z,94172.77
2018-11-20T08:52:55.745Z,94185.84
2018-11-20T08:56:01.441Z,94184.55
2018-11-20T08:58:54.024Z,94194.03
2018-11-20T09:01:44.066Z,94188.87
2018-11-20T09:04:53.707Z,94185.45
2018-11-20T09:07:51.980Z,94196.77
2018-11-20T09:10:42.087Z,94186.16
2018-11-20T09:13:50.363Z,94186.25
2018-11-20T09:17:02.241Z,94198.38
2018-11-20T09:19:51.504Z,94192.61
2018-11-20T09:22:53.479Z,94198.03
2018-11-20T09:25:37.981Z,94191.73
2018-11-20T09:28:31.567Z,94187.45
2018-11-20T09:31:23.956Z,94182.28
2018-11-20T09:34:23.332Z,94186.67
2018-11-20T09:37:15.614Z,94177.80
2018-11-20T09:41:21.545Z,94176.84
2018-11-20T09:44:16.657Z,94163.69
2018-11-20T09:47:10.728Z,94154.66
2018-11-20T09:50:04.590Z,94164.51
2018-11-20T09:52:57.971Z,94167.75
2018-11-20T09:56:00.476Z,94176.77
2018-11-20T09:58:51.810Z,94173.91
2018-11-20T10:01:49.944Z,94169.02
2018-11-20T10:04:50.380Z,94167.44
2018-11-20T10:07:47.054Z,94164.97
2018-11-20T10:11:15.553Z,94159.38
2018-11-20T10:14:21.303Z,94153.91
2018-11-20T10:17:08.826Z,94138.64
2018-11-20T10:20:02.961Z,94137.00
2018-11-20T10:23:05.998Z,94138.69
2018-11-20T10:26:13.008Z,94140.94
2018-11-20T10:28:57.674Z,94140.36
2018-11-20T10:31:57.107Z,94140.64
2018-11-20T10:34:50.034Z,94140.17
2018-11-20T10:37:39.264Z,94141.82
2018-11-20T10:40:37.536Z,94137.13
2018-11-20T10:43:28.824Z,94134.00
2018-11-20T10:46:35.943Z,94131.65
2018-11-20T10:49:39.897Z,94136.51
2018-11-20T10:52:23.818Z,94131.73
2018-11-20T10:55:07.775Z,94130.14
2018-11-20T10:58:22.235Z,94120.47
2018-11-20T11:01:15.067Z,94142.38
2018-11-20T11:04:20.016Z,94137.89
2018-11-20T11:07:18.056Z,94129.01
2018-11-20T11:10:08.515Z,94127.33
2018-11-20T11:13:04.029Z,94125.75
2018-11-20T11:16:07.422Z,94128.67
2018-11-20T11:19:19.738Z,94126.34
2018-11-20T11:22:14.735Z,94123.30
2018-11-20T11:25:18.967Z,94125.19
2018-11-20T11:28:13.346Z,94125.05
2018-11-20T11:31:18.145Z,94112.42
2018-11-20T11:34:14.051Z,94123.25
2018-11-20T11:37:04.453Z,94119.98
2018-11-20T11:39:54.025Z,94118.73
2018-11-20T11:42:43.498Z,94123.48
2018-11-20T11:45:37.791Z,94122.55
2018-11-20T11:48:35.070Z,94123.95
2018-11-20T11:51:26.535Z,94119.56
2018-11-20T11:54:22.991Z,94133.84
2018-11-20T11:57:34.721Z,94127.39
2018-11-20T12:00:47.332Z,94134.63
2018-11-20T12:03:42.092Z,94131.63
2018-11-20T12:06:40.051Z,94133.91
2018-11-20T12:09:40.648Z,94129.34
2018-11-20T12:12:49.761Z,94127.91
2018-11-20T12:15:47.963Z,94128.11
2018-11-20T12:19:18.311Z,94137.17
2018-11-20T12:22:09.078Z,94134.08
2018-11-20T12:25:05.759Z,94129.52
2018-11-20T12:28:16.795Z,94133.56
2018-11-20T12:31:17.795Z,94126.86
2018-11-20T12:34:05.269Z,94119.66
2018-11-20T12:37:12.002Z,94109.00
2018-11-20T12:40:14.591Z,94117.92
2018-11-20T12:43:08.756Z,94113.16
2018-11-20T12:46:18.390Z,94120.20
2018-11-20T12:49:32.465Z,94124.17
2018-11-20T12:52:24.024Z,94127.18
2018-11-20T12:55:21.205Z,94131.66
2018-11-20T12:58:20.409Z,94121.96
2018-11-20T13:01:15.571Z,94127.65
2018-11-20T13:04:19.722Z,94135.84
2018-11-20T13:07:19.304Z,94137.73
2018-11-20T13:10:13.841Z,94141.56
2018-11-20T13:13:30.852Z,94135.19
2018-11-20T13:16:37.730Z,94141.88
2018-11-20T13:19:29.339Z,94147.47
2018-11-20T13:22:22.327Z,94157.38
2018-11-20T13:25:09.538Z,94158.25
2018-11-20T13:28:46.927Z,94149.47
2018-11-20T13:31:37.929Z,94166.56
2018-11-20T13:34:53.859Z,94167.23
2018-11-20T13:38:00.877Z,94169.56
2018-11-20T13:41:44.660Z,94179.19
2018-11-20T13:44:41.458Z,94183.66
2018-11-20T13:47:41.055Z,94189.44
2018-11-20T13:54:01.506Z,94186.94
2018-11-20T13:56:55.163Z,94185.78
2018-11-20T14:00:01.573Z,94187.44
2018-11-20T14:02:58.400Z,94190.48
2018-11-20T14:06:00.438Z,94186.17
2018-11-20T14:08:54.701Z,94182.41
2018-11-20T14:11:36.603Z,94176.74
2018-11-20T14:14:40.446Z,94179.39
2018-11-20T14:17:45.839Z,94181.84
2018-11-20T14:20:56.689Z,94187.62
2018-11-20T14:23:44.962Z,94190.02
2018-11-20T14:26:33.160Z,94200.25
2018-11-20T14:29:45.953Z,94196.80
2018-11-20T14:32:22.480Z,94207.20
2018-11-20T14:35:11.832Z,94214.27
2018-11-20T14:38:03.884Z,94222.41
2018-11-20T14:41:01.031Z,94225.63
2018-11-20T14:43:50.159Z,94230.08
2018-11-20T14:46:51.761Z,94232.98
2018-11-20T14:49:41.037Z,94231.95
2018-11-20T14:52:31.072Z,94236.76
2018-11-20T14:55:33.017Z,94241.46
2018-11-20T14:58:22.614Z,94237.28
2018-11-20T15:01:17.957Z,94239.13
2018-11-20T15:04:10.287Z,94246.69
2018-11-20T15:07:02.679Z,94249.20
2018-11-20T15:09:52.382Z,94253.75
2018-11-20T15:12:34.134Z,94263.44
2018-11-20T15:15:26.183Z,94264.55
2018-11-20T15:18:14.134Z,94266.10
2018-11-20T15:21:07.204Z,94265.64
2018-11-20T15:24:07.015Z,94278.84
2018-11-20T15:27:05.186Z,94282.44
2018-11-20T15:30:13.239Z,94290.89
2018-11-20T15:33:00.749Z,94292.03
2018-11-20T15:35:51.288Z,94295.03
2018-11-20T15:38:41.226Z,94294.80
2018-11-20T15:41:30.564Z,94302.57
2018-11-20T15:44:30.693Z,94301.58
2018-11-20T15:47:29.949Z,94301.14
2018-11-20T15:50:25.333Z,94306.94
2018-11-20T15:53:12.176Z,94318.80
2018-11-20T15:56:09.565Z,94321.67
2018-11-20T15:58:58.422Z,94328.70
2018-11-20T16:01:48.855Z,94329.70
2018-11-20T16:04:38.991Z,94329.68
2018-11-20T16:07:17.907Z,94341.45
2018-11-20T16:10:13.358Z,94347.64
2018-11-20T16:12:59.578Z,94354.75
2018-11-20T16:15:53.932Z,94367.09
2018-11-20T16:18:57.894Z,94365.93
2018-11-20T16:21:48.846Z,94377.94
2018-11-20T16:24:46.144Z,94380.74
2018-11-20T16:27:26.462Z,94388.47
2018-11-20T16:30:15.265Z,94393.03
2018-11-20T16:33:05.574Z,94406.66
2018-11-20T16:36:03.051Z,94412.56
2018-11-20T16:38:52.011Z,94411.66
2018-11-20T16:41:57.396Z,94416.78
2018-11-20T16:45:01.496Z,94421.94
2018-11-20T16:47:56.081Z,94423.27
2018-11-20T16:50:59.504Z,94427.23
2018-11-20T16:53:47.885Z,94431.45
2018-11-20T16:56:52.469Z,94443.80
2018-11-20T16:59:40.453Z,94454.55
2018-11-20T17:02:35.076Z,94457.48
2018-11-20T17:05:24.348Z,94463.91
2018-11-20T17:08:18.994Z,94465.88
2018-11-20T17:11:15.385Z,94467.39
2018-11-20T17:14:14.196Z,94462.37
2018-11-20T17:17:01.596Z,94475.66
2018-11-20T17:19:58.507Z,94478.56
2018-11-20T17:22:48.735Z,94475.50
2018-11-20T17:25:38.229Z,94479.34
2018-11-20T17:28:27.675Z,94483.25
2018-11-20T17:31:19.798Z,94484.14
2018-11-20T17:34:15.566Z,94490.73
2018-11-20T17:37:06.333Z,94485.13
2018-11-20T17:39:57.713Z,94491.63
2018-11-20T17:42:42.942Z,94498.01
2018-11-20T17:45:32.336Z,94495.68
2018-11-20T17:48:26.842Z,94503.92
2018-11-20T17:51:19.707Z,94497.62
2018-11-20T17:54:02.226Z,94503.42
2018-11-20T17:56:54.909Z,94509.44
2018-11-20T17:59:38.802Z,94513.13
2018-11-20T18:02:34.312Z,94514.09
2018-11-20T18:05:15.462Z,94513.63
2018-11-20T18:10:57.843Z,94523.89
2018-11-20T18:13:48.266Z,94520.78
2018-11-20T18:16:38.501Z,94525.90
2018-11-20T18:19:33.328Z,94526.89
2018-11-20T18:22:34.366Z,94529.08
2018-11-20T18:25:43.434Z,94533.69
2018-11-20T18:28:32.413Z,94526.44
2018-11-20T18:31:35.091Z,94529.09
2018-11-20T18:34:24.106Z,94529.09
2018-11-20T18:37:28.457Z,94524.94
2018-11-20T18:40:34.366Z,94530.77
2018-11-20T18:43:25.961Z,94536.15
2018-11-20T18:46:29.868Z,94544.30
2018-11-20T18:49:26.374Z,94547.81
2018-11-20T18:52:17.156Z,94552.70
2018-11-20T18:55:08.955Z,94555.55
2018-11-20T18:57:48.832Z,94559.40
2018-11-20T19:00:34.454Z,94560.68
2018-11-20T19:03:26.382Z,94565.33
2018-11-20T19:06:16.009Z,94559.77
2018-11-20T19:09:24.673Z,94566.22
2018-11-20T19:12:22.751Z,94569.66
2018-11-20T19:15:17.010Z,94567.55
2018-11-20T19:18:07.732Z,94566.89
2018-11-20T19:21:05.836Z,94573.47
2018-11-20T19:24:10.077Z,94573.67
2018-11-20T19:27:07.572Z,94568.35
2018-11-20T19:30:00.640Z,94575.99
2018-11-20T19:32:54.323Z,94586.37
2018-11-20T19:35:42.980Z,94590.15
2018-11-20T19:38:31.868Z,94600.01
2018-11-20T19:41:40.471Z,94596.76
2018-11-20T19:47:36.992Z,94594.45
2018-11-20T19:50:31.913Z,94597.30
2018-11-20T19:53:31.381Z,94616.74
2018-11-20T19:56:28.804Z,94620.82
2018-11-20T19:59:20.143Z,94619.16
2018-11-20T20:02:10.570Z,94623.67
2018-11-20T20:05:01.323Z,94630.47
2018-11-20T20:07:56.251Z,94636.13
2018-11-20T20:11:08.043Z,94643.09
2018-11-20T20:14:14.759Z,94638.00
2018-11-20T20:17:17.481Z,94644.90
2018-11-20T20:20:07.748Z,94648.14
2018-11-20T20:23:05.315Z,94645.14
2018-11-20T20:25:57.673Z,94650.75
2018-11-20T20:28:47.996Z,94651.64
2018-11-20T20:31:37.236Z,94649.87
2018-11-20T20:34:34.740Z,94655.09
2018-11-20T20:37:25.994Z,94647.56
2018-11-20T20:40:16.043Z,94657.01
2018-11-20T20:43:12.486Z,94661.95
2018-11-20T20:46:11.762Z,94661.29
2018-11-20T20:49:08.800Z,94661.04
2018-11-20T20:51:59.824Z,94658.77
2018-11-20T20:54:55.047Z,94659.77
2018-11-20T20:57:51.933Z,94662.55
2018-11-20T21:00:41.825Z,94667.76
2018-11-20T21:03:26.300Z,94668.48
2018-11-20T21:06:21.493Z,94671.36
2018-11-20T21:09:11.364Z,94671.00
2018-11-20T21:12:00.402Z,94672.28
2018-11-20T21:15:06.527Z,94669.48
2018-11-20T21:18:06.523Z,94667.89
2018-11-20T21:21:17.727Z,94677.34
2018-11-20T21:24:17.161Z,94679.27
2018-11-20T21:27:09.081Z,94672.27
2018-11-20T21:30:11.229Z,94679.95
2018-11-20T21:32:58.061Z,94681.23
2018-11-20T21:35:47.063Z,94677.75
2018-11-20T21:38:35.357Z,94684.97
2018-11-20T21:41:42.531Z,94690.88
2018-11-20T21:44:31.597Z,94696.00
2018-11-20T21:47:23.199Z,94699.48
2018-11-20T21:50:28.498Z,94699.05
2018-11-20T21:53:25.899Z,94704.17
2018-11-20T21:56:18.079Z,94714.20
2018-11-20T21:59:13.608Z,94706.25
2018-11-20T22:02:00.381Z,94722.95
2018-11-20T22:04:52.013Z,94726.23
2018-11-20T22:07:48.832Z,94724.16
2018-11-20T22:10:36.560Z,94716.12
2018-11-20T22:13:46.492Z,94718.73
2018-11-20T22:16:37.839Z,94723.95
2018-11-20T22:19:28.165Z,94730.91
2018-11-20T22:22:20.050Z,94725.80
2018-11-20T22:25:15.949Z,94730.05
2018-11-20T22:28:06.986Z,94742.02
2018-11-20T22:30:59.969Z,94733.52
2018-11-20T22:33:52.039Z,94735.10
2018-11-20T22:36:48.058Z,94730.48
2018-11-20T22:39:27.303Z,94736.81
2018-11-20T22:42:16.887Z,94742.81
2018-11-20T22:45:18.897Z,94742.19
2018-11-20T22:48:12.337Z,94744.31
2018-11-20T22:51:07.759Z,94742.22
2018-11-20T22:53:56.062Z,94742.31
2018-11-20T22:57:11.888Z,94741.58
2018-11-20T23:00:05.549Z,94742.69
2018-11-20T23:03:00.426Z,94741.69
2018-11-20T23:05:46.109Z,94742.20
2018-11-20T23:08:22.276Z,94737.48
2018-11-20T23:10:55.692Z,94744.60
2018-11-20T23:13:35.530Z,94737.12
2018-11-20T23:16:08.661Z,94740.50
2018-11-20T23:18:39.294Z,94736.11
2018-11-20T23:21:20.941Z,94739.20
2018-11-20T23:23:54.983Z,94737.62
2018-11-20T23:26:25.580Z,94730.81
2018-11-20T23:28:58.842Z,94729.09
2018-11-20T23:31:29.319Z,94731.28
2018-11-20T23:34:01.553Z,94735.55
2018-11-20T23:36:33.145Z,94737.02
2018-11-20T23:39:11.471Z,94733.48
2018-11-20T23:41:44.512Z,94731.98
2018-11-20T23:44:18.604Z,94730.33
2018-11-20T23:47:03.991Z,94729.63
2018-11-20T23:49:35.733Z,94730.89
2018-11-20T23:52:20.099Z,94729.45
2018-11-20T23:54:49.093Z,94734.02
2018-11-20T23:57:22.644Z,94737.95
2018-11-20T23:59:55.397Z,94747.42
